Deep Gap, NC

4:05 AM EDT on September 20, 2014 (GMT -0400)
Sedona Summit @ BRMC | Change Station
CLOSE
Current Station
Personal Weather Station
Location: Boone, NC
Elevation: 2650 ft
Nearby Weather Stations

Elev 2650 ft 36.16 °N, 81.53 °W | Updated 5 minutes ago

Overcast
Overcast
59.0 °F
Feels Like 59.0 °F
N
0.0
Wind Variable Wind from East
Gusts 1.0 mph

Today
High -- | Low -- °F
--% Chance of Precip.
Yesterday
High -- | Low -- °F
Precip. -- in
7:12 AM 7:25 PM
Waning Crescent, 14% visible
Pressure 30.28 in
Visibility 4.0 miles
Clouds Scattered Clouds 200 ft
Scattered Clouds 700 ft
Overcast 1300 ft
Dew Point 58 °F
Humidity 98%
Rainfall 0.00 in
Snow Depth Not available.
UV 0 out of 12
Pollen 5.70 out of 12
Air Quality Not available.
Flu Activity Not available.
METAR KTNB 200755Z AUTO 14006KT 4SM -DZ SCT002 SCT007 OVC013 14/14 A3028 RMK AO2 T01420142

More Conditions Fewer Conditions

Pressure 30.28 in
Visibility 4.0 miles
Clouds Scattered Clouds 200 ft
Scattered Clouds 700 ft
Overcast 1300 ft
Dew Point 58 °F
Humidity 98%
Rainfall 0.00 in
Snow Depth Not available.
UV 0 out of 12
Pollen 5.70 out of 12
Air Quality Not available.
Flu Activity Not available.
METAR KTNB 200755Z AUTO 14006KT 4SM -DZ SCT002 SCT007 OVC013 14/14 A3028 RMK AO2 T01420142

More Conditions Fewer Conditions

10-Day Weather Forecast

Almanac

Astronomy

Sep. 20, 2014 Rise Set
Actual Time 7:12 AM EDT 7:25 PM EDT
Civil Twilight 6:46 AM EDT 7:51 PM EDT
Nautical Twilight 6:16 AM EDT 8:21 PM EDT
Astronomical Twilight 5:46 AM EDT 8:51 PM EDT
Moon 3:55 AM EDT 5:24 PM EDT
Length of Visible Light 13h 04m
Length of Day
12h 13m
Tomorrow will be 2m 17s shorter.
Waning Crescent, 14% of the Moon is Illuminated
Today
Waning Crescent
Sep 24
New
Oct 1
First Quarter
Oct 8
Full
Oct 15
Last Quarter

Today's Extremes

State Highs State Lows

Community

WunderPhotos

Upload Photos

1,754,793 photos uploaded!

WunderBlogs® & News

Nearby

Snow Depth

Station Depth Elevation
No new snow has been reported.

Earthquake Activity

City Distance Mag. Time & Date
No recent earthquake activity has been reported nearby.
Minimum magnitude displayed is 2.5.

Coastal Water Temperatures

Place Temperature
No Stations Reporting

Nearby Weather Stations